createdAt,value
2023-03-11T00:01:41.072Z,0.37
2023-03-11T00:06:44.575Z,0.60
2023-03-11T00:11:49.671Z,0.40
2023-03-11T00:16:53.405Z,0.40
2023-03-11T00:21:57.929Z,0.70
2023-03-11T00:27:04.036Z,1.00
2023-03-11T00:32:08.361Z,0.90
2023-03-11T00:37:13.460Z,0.87
2023-03-11T00:42:18.275Z,0.70
2023-03-11T00:47:21.689Z,0.47
2023-03-11T00:52:25.122Z,0.90
2023-03-11T00:57:30.222Z,0.67
2023-03-11T01:02:34.040Z,0.77
2023-03-11T01:07:37.792Z,0.60
2023-03-11T01:12:43.176Z,0.67
2023-03-11T01:17:46.515Z,0.50
2023-03-11T01:22:50.322Z,0.50
2023-03-11T01:27:54.955Z,0.50
2023-03-11T01:32:59.835Z,0.43
2023-03-11T01:38:03.766Z,0.50
2023-03-11T01:43:40.977Z,0.40
2023-03-11T01:48:50.876Z,0.60
2023-03-11T01:53:55.158Z,0.33
2023-03-11T01:59:01.672Z,0.80
2023-03-11T02:04:05.604Z,0.40
2023-03-11T02:09:09.095Z,0.50
2023-03-11T02:14:15.209Z,0.40
2023-03-11T02:19:28.406Z,0.30
2023-03-11T02:24:40.634Z,0.30
2023-03-11T02:29:50.002Z,0.40
2023-03-11T02:34:54.151Z,0.50
2023-03-11T02:40:17.521Z,0.53
2023-03-11T02:45:25.668Z,0.30
2023-03-11T02:50:31.439Z,0.40
2023-03-11T02:55:35.457Z,0.30
2023-03-11T03:00:40.303Z,0.40
2023-03-11T03:05:44.754Z,0.53
2023-03-11T03:10:48.270Z,0.40
2023-03-11T03:15:53.281Z,0.30
2023-03-11T03:20:57.140Z,0.63
2023-03-11T03:26:00.726Z,0.37
2023-03-11T07:42:36.933Z,0.40
2023-03-11T07:47:41.545Z,0.40
2023-03-11T07:52:46.221Z,0.47
2023-03-11T07:57:51.613Z,0.63
2023-03-11T08:02:54.997Z,0.40
2023-03-11T08:07:59.585Z,0.40
2023-03-11T08:13:02.725Z,0.50
2023-03-11T08:18:06.486Z,0.53
2023-03-11T08:23:11.119Z,0.60
2023-03-11T08:28:14.257Z,0.60
2023-03-11T08:33:17.419Z,0.70
2023-03-11T08:38:22.351Z,0.80
2023-03-11T08:43:25.499Z,0.60
2023-03-11T08:48:29.075Z,0.50
2023-03-11T08:53:33.957Z,0.50
2023-03-11T08:58:37.433Z,0.60
2023-03-11T09:03:41.048Z,0.40
2023-03-11T09:08:46.632Z,0.60
2023-03-11T09:13:50.529Z,0.50
2023-03-11T09:18:53.736Z,0.50
2023-03-11T09:23:58.293Z,0.60
2023-03-11T09:29:01.822Z,0.50
2023-03-11T09:34:04.972Z,0.50
2023-03-11T09:39:10.483Z,0.50
2023-03-11T09:44:18.953Z,0.33
2023-03-11T09:49:29.694Z,0.40
2023-03-11T09:54:40.251Z,0.20
2023-03-11T09:59:44.767Z,0.30
2023-03-11T10:04:54.511Z,0.40
2023-03-11T10:10:00.286Z,0.20
2023-03-11T10:15:22.048Z,0.30
2023-03-11T10:20:31.806Z,0.30
2023-03-11T10:25:48.726Z,0.30
2023-03-11T10:30:56.946Z,0.30
2023-03-11T10:36:05.726Z,0.33
2023-03-11T10:41:18.611Z,0.30
2023-03-11T10:46:25.579Z,0.40
2023-03-11T10:51:33.523Z,0.40
2023-03-11T10:56:39.938Z,0.40
2023-03-11T11:01:55.910Z,0.50
2023-03-11T11:07:00.696Z,0.53
2023-03-11T11:12:07.881Z,0.47
2023-03-11T11:17:21.507Z,0.20
2023-03-11T11:22:26.034Z,0.30
2023-03-11T11:27:32.778Z,0.20
2023-03-11T11:32:36.968Z,0.40
2023-03-11T11:37:43.837Z,0.30
2023-03-11T11:42:53.615Z,0.40
2023-03-11T11:48:00.534Z,0.30
2023-03-11T11:53:12.136Z,0.27
2023-03-11T11:58:16.999Z,0.20
2023-03-11T12:03:43.753Z,0.30
2023-03-11T12:08:53.100Z,0.40
2023-03-11T12:14:05.954Z,0.20
2023-03-11T12:19:19.425Z,0.40
2023-03-11T12:24:40.450Z,0.40
2023-03-11T12:29:49.900Z,0.30
2023-03-11T12:34:53.499Z,0.40
2023-03-11T12:39:56.993Z,0.30
2023-03-11T12:45:39.849Z,0.40
2023-03-11T12:50:44.642Z,0.40
2023-03-11T12:56:06.051Z,0.40
2023-03-11T13:01:53.640Z,0.50
2023-03-11T13:07:29.079Z,0.40
2023-03-11T13:12:42.164Z,0.50
2023-03-11T13:17:59.216Z,0.47
2023-03-11T13:23:23.663Z,0.40
2023-03-11T13:28:45.142Z,0.40
2023-03-11T13:33:53.766Z,0.50
2023-03-11T13:39:19.980Z,0.50
2023-03-11T13:44:30.006Z,0.50
2023-03-11T13:49:39.348Z,0.30
2023-03-11T13:54:50.292Z,0.50
2023-03-11T13:59:55.080Z,0.47
2023-03-11T14:05:04.471Z,0.40
2023-03-11T14:10:28.673Z,0.50
2023-03-11T14:15:43.932Z,0.40
2023-03-11T14:20:49.385Z,0.40
2023-03-11T14:26:01.587Z,0.40
2023-03-11T14:31:05.830Z,0.40
2023-03-11T14:36:15.884Z,0.30
2023-03-11T14:41:20.858Z,0.50
2023-03-11T14:46:29.577Z,0.37
2023-03-11T14:51:35.250Z,0.43
2023-03-11T14:56:44.485Z,0.50
2023-03-11T15:01:49.181Z,0.40
2023-03-11T15:06:52.469Z,0.50
2023-03-11T15:11:59.173Z,0.67
2023-03-11T15:17:23.245Z,0.60
2023-03-11T15:22:39.630Z,0.70
2023-03-11T15:27:44.381Z,0.30
2023-03-11T15:32:48.500Z,0.30
2023-03-11T15:37:53.164Z,0.40
2023-03-11T15:43:22.136Z,0.27
2023-03-11T15:48:27.908Z,0.20
2023-03-11T15:53:32.200Z,0.37
2023-03-11T15:58:38.969Z,0.40
2023-03-11T16:03:42.168Z,0.20
2023-03-11T16:08:46.128Z,0.30
2023-03-11T16:13:50.994Z,0.20
2023-03-11T16:18:54.340Z,0.30
2023-03-11T16:23:57.808Z,0.30
2023-03-11T16:29:16.540Z,0.50
2023-03-11T16:34:22.529Z,0.37
2023-03-11T16:39:25.752Z,0.30
2023-03-11T16:44:30.252Z,0.27
2023-03-11T16:49:33.451Z,0.10
2023-03-11T16:54:36.790Z,0.30
2023-03-11T16:59:41.610Z,0.30
2023-03-11T17:04:45.219Z,0.40
2023-03-11T17:09:48.638Z,0.20
2023-03-11T17:14:54.243Z,0.30
2023-03-11T17:19:57.507Z,0.30
2023-03-11T17:25:00.605Z,0.30
2023-03-11T17:30:07.113Z,0.27
2023-03-11T17:35:11.075Z,0.37
2023-03-11T17:40:14.489Z,0.50
2023-03-11T17:45:19.678Z,0.30
2023-03-11T17:50:23.412Z,0.43
2023-03-11T17:55:26.577Z,0.40
2023-03-11T18:00:31.506Z,0.30
2023-03-11T18:05:36.807Z,0.30
2023-03-11T18:10:39.957Z,0.20
2023-03-11T18:15:44.768Z,0.40
2023-03-11T18:20:48.240Z,0.47
2023-03-11T18:25:52.467Z,0.50
2023-03-11T18:30:57.585Z,0.73
2023-03-11T18:36:00.947Z,1.00
2023-03-11T18:41:04.512Z,1.40
2023-03-11T18:46:11.365Z,1.13
2023-03-11T18:51:15.258Z,1.10
2023-03-11T18:56:19.545Z,1.77
2023-03-11T19:01:24.245Z,1.90
2023-03-11T19:06:29.221Z,2.40
2023-03-11T19:11:32.299Z,2.33
2023-03-11T19:16:37.077Z,1.90
2023-03-11T19:21:40.664Z,1.73
2023-03-11T19:26:46.109Z,1.70
2023-03-11T19:31:50.960Z,1.23
2023-03-11T19:36:54.184Z,3.13
2023-03-11T19:41:58.776Z,3.10
2023-03-11T19:47:03.378Z,2.27
2023-03-11T19:52:09.652Z,2.10
2023-03-11T19:57:12.856Z,1.60
2023-03-11T20:02:17.596Z,1.30
2023-03-11T20:07:20.826Z,1.17
2023-03-11T20:12:24.200Z,1.00
2023-03-11T20:17:29.028Z,0.90
2023-03-11T20:22:32.227Z,0.77
2023-03-11T20:27:35.803Z,1.00
2023-03-11T20:32:40.367Z,0.73
2023-03-11T20:37:44.375Z,1.20
2023-03-11T20:42:48.315Z,1.00
2023-03-11T20:47:53.682Z,1.00
2023-03-11T20:52:57.329Z,0.87
2023-03-11T20:58:00.464Z,0.80
2023-03-11T21:03:05.103Z,1.00
2023-03-11T21:08:08.593Z,0.80
2023-03-11T21:13:12.337Z,0.70
2023-03-11T21:18:17.076Z,0.73
2023-03-11T21:23:20.571Z,0.90
2023-03-11T21:28:23.868Z,0.93
2023-03-11T21:33:28.518Z,0.90
2023-03-11T21:38:32.109Z,0.97
2023-03-11T21:43:36.117Z,0.87
2023-03-11T21:48:41.338Z,0.90
2023-03-11T21:53:45.188Z,0.90
2023-03-11T21:58:49.829Z,0.90
2023-03-11T22:03:55.408Z,1.50
2023-03-11T22:08:58.567Z,1.00
2023-03-11T22:14:02.840Z,0.97
2023-03-11T22:19:10.042Z,1.00
2023-03-11T22:24:13.504Z,1.17
2023-03-11T22:29:16.674Z,1.60
2023-03-11T22:34:21.117Z,1.20
2023-03-11T22:39:24.681Z,1.00
2023-03-11T22:44:28.377Z,0.90
2023-03-11T22:49:33.893Z,0.80
2023-03-11T22:54:38.255Z,1.40
2023-03-11T22:59:41.422Z,1.43
2023-03-11T23:04:46.900Z,1.50
2023-03-11T23:09:50.254Z,1.53
2023-03-11T23:14:53.642Z,1.43
2023-03-11T23:19:58.207Z,1.40
2023-03-11T23:25:02.936Z,1.47
2023-03-11T23:30:07.580Z,1.30
2023-03-11T23:35:13.411Z,1.37
2023-03-11T23:40:17.684Z,1.40
2023-03-11T23:45:20.856Z,1.60
2023-03-11T23:50:25.609Z,1.50
2023-03-11T23:55:28.747Z,1.43
